Darstellungsparameter: Aktuell verwendete Einstellungen:
Skalierung der Graphiken ... ?
xyx+y,   Skalierungsfaktor:      Skalierung: Modus: x, Faktor: 1
Darstellungszeitraum ... ?
Vom - - bis: - -   Zeitraum: 14.06.2010 - 20.06.2010
Min/Max/Avg-Anzeige ... ?
Zeige MMA aktuell
Zeige MMA Monat
Zeige MMA alles
Zeige --A aktuell
Zeige --A Monat
Zeige --A alles
Keine MMA-Anzeige
MMA:
Keine MMA-Graphiken
MMA-Basis: 14.06.2010 - 20.06.2010
Quicknavigation für Darstellung... ?
Tage:      1T, 2T, 3T, 5T -1T -2T -3T -5T +1T +2T +3T +5T
Wochen: 1W, 2W, 3W -1W -2W -3W +1W +2W +3W
Monate: 1M, 3M, 6M -1M -3M -6M +1M +3M +6M
Jahre:    1J, 3J, 5J, 10J -1J -3J -5J -10J +1J +3J +5J +10J
Nutze für die Darstellung ... ?
Originaldaten oder Mittelwerte auf ...
Stundenbasis Tagesbasis Wochenbasis
Monatsbasis Jahresbasis      Datenbasis: Original-Daten
Darstellen als:
Statistik (Auto) Statistik J:M      Darstellung:
Zur Graphik,    zurück zur Übersicht aller Sensoren.
 
Tabellarische Datenbersicht: ?
 
Sensor: Nr:Datum:Temp:Feuchte:Taupunkt:
Aussen-T/F 1 14-06-2010 00:10:02 15.7 C 55 % 6.69 C
2 14-06-2010 00:22:02 15.4 C 57 % 6.93 C
3 14-06-2010 00:34:02 15.4 C 57 % 6.93 C
4 14-06-2010 00:46:02 15.4 C 58 % 7.19 C
5 14-06-2010 00:58:02 15.3 C 57 % 6.84 C
6 14-06-2010 01:10:02 14.9 C 59 % 6.97 C
7 14-06-2010 01:22:02 14.8 C 58 % 6.63 C
8 14-06-2010 01:34:02 14.5 C 59 % 6.59 C
9 14-06-2010 01:46:02 14.3 C 59 % 6.41 C
10 14-06-2010 01:58:02 14.1 C 61 % 6.7 C
11 14-06-2010 02:10:02 13.9 C 64 % 7.21 C
12 14-06-2010 02:22:03 13.4 C 64 % 6.74 C
13 14-06-2010 02:34:03 13.5 C 66 % 7.28 C
14 14-06-2010 02:46:03 13.3 C 67 % 7.31 C
15 14-06-2010 02:58:03 13.2 C 68 % 7.43 C
16 14-06-2010 03:10:03 13 C 69 % 7.45 C
17 14-06-2010 03:22:03 12.9 C 70 % 7.57 C
18 14-06-2010 03:34:03 12.7 C 71 % 7.58 C
19 14-06-2010 03:46:03 12.5 C 71 % 7.39 C
20 14-06-2010 03:58:03 12.2 C 73 % 7.51 C
21 14-06-2010 04:10:03 12.2 C 73 % 7.51 C
22 14-06-2010 04:22:03 12.1 C 74 % 7.61 C
23 14-06-2010 04:34:03 11.9 C 74 % 7.42 C
24 14-06-2010 04:46:03 11.9 C 74 % 7.42 C
25 14-06-2010 04:58:03 11.8 C 74 % 7.32 C
Sensor: Nr:Datum:Temp:Feuchte:Taupunkt:
Aussen-T/F 26 14-06-2010 05:10:03 11.8 C 74 % 7.32 C
27 14-06-2010 05:22:03 11.6 C 74 % 7.13 C
28 14-06-2010 05:34:03 11.4 C 74 % 6.94 C
29 14-06-2010 05:46:03 11.3 C 74 % 6.84 C
30 14-06-2010 05:58:03 11.3 C 75 % 7.04 C
31 14-06-2010 06:10:03 11.3 C 76 % 7.23 C
32 14-06-2010 06:22:03 11.2 C 76 % 7.13 C
33 14-06-2010 06:34:03 11.3 C 77 % 7.42 C
34 14-06-2010 06:46:03 11.4 C 77 % 7.52 C
35 14-06-2010 06:58:04 11.2 C 78 % 7.51 C
36 14-06-2010 07:10:01 11.2 C 79 % 7.7 C
37 14-06-2010 07:22:02 11.5 C 80 % 8.17 C
38 14-06-2010 07:34:01 11.7 C 79 % 8.18 C
39 14-06-2010 07:46:01 11.9 C 78 % 8.19 C
40 14-06-2010 07:58:01 12.2 C 77 % 8.29 C
41 14-06-2010 08:10:02 12.5 C 76 % 8.39 C
42 14-06-2010 08:22:02 12.9 C 74 % 8.38 C
43 14-06-2010 08:34:01 13.2 C 73 % 8.47 C
44 14-06-2010 08:46:02 13.8 C 71 % 8.64 C
45 14-06-2010 08:58:02 14.5 C 69 % 8.89 C
46 14-06-2010 09:10:01 15 C 65 % 8.48 C
47 14-06-2010 09:22:02 15.9 C 62 % 8.64 C
48 14-06-2010 09:34:01 17 C 55 % 7.9 C
49 14-06-2010 09:46:03 17.8 C 51 % 7.54 C
50 14-06-2010 09:58:03 18.4 C 48 % 7.2 C
Sensor: Nr:Datum:Temp:Feuchte:Taupunkt:
Aussen-T/F 51 14-06-2010 10:10:02 18.8 C 47 % 7.26 C
52 14-06-2010 10:22:02 19.5 C 45 % 7.26 C
53 14-06-2010 10:34:02 20.3 C 42 % 6.98 C
54 14-06-2010 10:46:02 20.4 C 40 % 6.36 C
55 14-06-2010 10:58:02 20.8 C 39 % 6.35 C
56 14-06-2010 11:10:01 21.5 C 37 % 6.21 C
57 14-06-2010 11:22:02 22.3 C 36 % 6.52 C
58 14-06-2010 11:34:02 23.1 C 32 % 5.52 C
59 14-06-2010 11:46:02 23.6 C 29 % 4.54 C
60 14-06-2010 11:58:02 24.1 C 25 % 2.86 C
61 14-06-2010 12:10:02 24.5 C 26 % 3.76 C
62 14-06-2010 12:22:02 24.6 C 25 % 3.29 C
63 14-06-2010 12:34:02 23.9 C 25 % 2.69 C
64 14-06-2010 12:46:02 25.7 C 23 % 3.03 C
65 14-06-2010 12:58:02 27.2 C 20 % 2.31 C
66 14-06-2010 13:10:02 26.5 C 20 % 1.74 C
67 14-06-2010 13:22:01 23.9 C 25 % 2.69 C
68 14-06-2010 13:34:02 27.8 C 20 % 2.8 C
69 14-06-2010 13:46:02 27.1 C 20 % 2.23 C
70 14-06-2010 13:58:02 26.4 C 20 % 1.65 C
71 14-06-2010 14:10:02 27.4 C 20 % 2.47 C
72 14-06-2010 14:22:01 28 C 20 % 2.97 C
73 14-06-2010 14:34:02 27.8 C 20 % 2.8 C
74 14-06-2010 14:46:02 27 C 20 % 2.15 C
75 14-06-2010 14:58:02 27 C 20 % 2.15 C
Sensor: Nr:Datum:Temp:Feuchte:Taupunkt:
Aussen-T/F 76 14-06-2010 15:10:02 26.3 C 22 % 2.91 C
77 14-06-2010 15:22:02 25.6 C 22 % 2.32 C
78 14-06-2010 15:34:02 26.7 C 20 % 1.9 C
79 14-06-2010 15:46:02 28 C 20 % 2.97 C
80 14-06-2010 15:58:02 27.9 C 20 % 2.88 C
81 14-06-2010 16:10:02 29.1 C 20 % 3.87 C
82 14-06-2010 16:22:02 29.1 C 20 % 3.87 C
83 14-06-2010 16:34:02 29.8 C 20 % 4.44 C
84 14-06-2010 16:46:01 30.2 C 20 % 4.77 C
85 14-06-2010 16:58:01 30.9 C 20 % 5.34 C
86 14-06-2010 17:10:02 30 C 20 % 4.61 C
87 14-06-2010 17:22:02 28.7 C 20 % 3.54 C
88 14-06-2010 17:34:02 29.7 C 20 % 4.36 C
89 14-06-2010 17:46:02 29 C 20 % 3.79 C
90 14-06-2010 17:58:02 28.3 C 20 % 3.21 C
91 14-06-2010 18:10:02 27.7 C 20 % 2.72 C
92 14-06-2010 18:22:02 29.4 C 20 % 4.11 C
93 14-06-2010 18:34:01 29.5 C 20 % 4.2 C
94 14-06-2010 18:46:02 28.6 C 20 % 3.46 C
95 14-06-2010 18:58:02 27.2 C 20 % 2.31 C
96 14-06-2010 19:10:01 25.7 C 24 % 3.63 C
97 14-06-2010 19:22:01 24.7 C 27 % 4.46 C
98 14-06-2010 19:34:01 24.4 C 30 % 5.72 C
99 14-06-2010 19:46:02 25.5 C 27 % 5.14 C
100 14-06-2010 19:58:02 25.7 C 27 % 5.31 C
Sensor: Nr:Datum:Temp:Feuchte:Taupunkt:
Aussen-T/F 101 14-06-2010 20:10:02 25.3 C 27 % 4.97 C
102 14-06-2010 20:22:02 24.2 C 30 % 5.54 C
103 14-06-2010 20:34:02 22.9 C 32 % 5.35 C
104 14-06-2010 20:46:01 22.2 C 31 % 4.28 C
105 14-06-2010 20:58:01 21.7 C 32 % 4.3 C
106 14-06-2010 21:10:02 21.1 C 33 % 4.22 C
107 14-06-2010 21:22:01 20.4 C 35 % 4.44 C
108 14-06-2010 21:34:02 20 C 36 % 4.49 C
109 14-06-2010 21:46:02 19.6 C 36 % 4.14 C
110 14-06-2010 21:58:02 19.2 C 37 % 4.17 C
111 14-06-2010 22:10:02 18.9 C 39 % 4.66 C
112 14-06-2010 22:22:02 18.7 C 42 % 5.54 C
113 14-06-2010 22:34:01 18.6 C 48 % 7.39 C
114 14-06-2010 22:46:02 18.5 C 51 % 8.18 C
115 14-06-2010 22:58:02 18.4 C 53 % 8.66 C
116 14-06-2010 23:10:01 18.2 C 54 % 8.75 C
117 14-06-2010 23:22:01 18.4 C 55 % 9.2 C
118 14-06-2010 23:34:02 18.4 C 54 % 8.93 C
119 14-06-2010 23:46:02 18.5 C 55 % 9.3 C
120 14-06-2010 23:58:02 18.3 C 55 % 9.11 C
121 15-06-2010 00:10:01 17.7 C 57 % 9.08 C
122 15-06-2010 00:22:02 17.2 C 59 % 9.13 C
123 15-06-2010 00:34:02 17.1 C 61 % 9.53 C
124 15-06-2010 00:46:02 16.8 C 61 % 9.24 C
125 15-06-2010 00:58:02 16.6 C 62 % 9.3 C
Sensor: Nr:Datum:Temp:Feuchte:Taupunkt:
Aussen-T/F 126 15-06-2010 01:10:02 16.4 C 64 % 9.58 C
127 15-06-2010 01:22:02 16.3 C 65 % 9.71 C
128 15-06-2010 01:34:01 16 C 66 % 9.66 C
129 15-06-2010 01:46:02 15.8 C 67 % 9.69 C
130 15-06-2010 01:58:02 15.6 C 69 % 9.94 C
131 15-06-2010 02:10:01 15.5 C 70 % 10.06 C
132 15-06-2010 02:22:01 15.4 C 70 % 9.96 C
133 15-06-2010 02:34:02 15.3 C 70 % 9.87 C
134 15-06-2010 02:47:04 15.1 C 71 % 9.89 C
135 15-06-2010 02:59:04 15 C 73 % 10.2 C
136 15-06-2010 03:11:03 14.9 C 74 % 10.31 C
137 15-06-2010 03:23:03 14.8 C 75 % 10.42 C
138 15-06-2010 03:35:02 14.6 C 74 % 10.02 C
139 15-06-2010 03:47:02 14.6 C 74 % 10.02 C
140 15-06-2010 03:59:02 14.3 C 74 % 9.73 C
141 15-06-2010 04:11:02 14.2 C 75 % 9.84 C
142 15-06-2010 04:23:02 13.9 C 77 % 9.94 C
143 15-06-2010 04:35:01 13.7 C 77 % 9.75 C
144 15-06-2010 04:47:02 13.5 C 78 % 9.74 C
145 15-06-2010 04:59:02 13.5 C 79 % 9.93 C
146 15-06-2010 05:11:01 13.5 C 79 % 9.93 C
147 15-06-2010 05:23:01 13.5 C 80 % 10.12 C
148 15-06-2010 05:35:02 13.5 C 80 % 10.12 C
149 15-06-2010 05:47:02 13.4 C 80 % 10.02 C
150 15-06-2010 05:59:03 13.5 C 80 % 10.12 C
Sensor: Nr:Datum:Temp:Feuchte:Taupunkt:
Aussen-T/F 151 15-06-2010 06:11:01 13.6 C 80 % 10.22 C
152 15-06-2010 06:23:02 13.5 C 80 % 10.12 C
153 15-06-2010 06:35:02 13.5 C 80 % 10.12 C
154 15-06-2010 06:47:01 13.5 C 81 % 10.31 C
155 15-06-2010 06:59:01 13.8 C 81 % 10.6 C
156 15-06-2010 07:11:01 14 C 81 % 10.79 C
157 15-06-2010 07:23:01 14.4 C 80 % 11 C
158 15-06-2010 07:35:02 14.9 C 78 % 11.1 C
159 15-06-2010 07:47:02 15.4 C 74 % 10.79 C
160 15-06-2010 07:59:02 15.9 C 72 % 10.86 C
161 15-06-2010 08:11:01 16.3 C 69 % 10.61 C
162 15-06-2010 08:23:02 16.7 C 67 % 10.55 C
163 15-06-2010 08:35:01 16.5 C 63 % 9.44 C
164 15-06-2010 08:47:02 16.8 C 62 % 9.49 C
165 15-06-2010 08:59:02 17.1 C 60 % 9.28 C
166 15-06-2010 09:11:01 17.1 C 58 % 8.78 C
167 15-06-2010 09:23:01 17.2 C 57 % 8.62 C
168 15-06-2010 09:35:02 17.8 C 56 % 8.91 C
169 15-06-2010 09:47:02 17.9 C 55 % 8.74 C
170 15-06-2010 09:59:02 18.5 C 51 % 8.18 C
171 15-06-2010 10:11:01 19 C 50 % 8.35 C
172 15-06-2010 10:23:01 20 C 45 % 7.72 C
173 15-06-2010 10:35:02 20 C 46 % 8.04 C
174 15-06-2010 10:47:02 19.9 C 46 % 7.95 C
175 15-06-2010 10:59:02 19.7 C 47 % 8.08 C
Sensor: Nr:Datum:Temp:Feuchte:Taupunkt:
Aussen-T/F 176 15-06-2010 11:11:02 20.3 C 45 % 7.99 C
177 15-06-2010 11:23:02 20.9 C 44 % 8.2 C
178 15-06-2010 11:35:02 20.4 C 44 % 7.75 C
179 15-06-2010 11:47:02 21.3 C 44 % 8.56 C
180 15-06-2010 11:59:02 20.6 C 46 % 8.58 C
181 15-06-2010 12:11:02 21.1 C 45 % 8.71 C
182 15-06-2010 12:23:02 21.2 C 44 % 8.47 C
183 15-06-2010 12:35:02 21.2 C 44 % 8.47 C
184 15-06-2010 12:47:02 21.6 C 43 % 8.49 C
185 15-06-2010 12:59:02 21.2 C 44 % 8.47 C
186 15-06-2010 13:11:02 20.8 C 45 % 8.44 C
187 15-06-2010 13:23:02 21.3 C 42 % 7.88 C
188 15-06-2010 13:35:02 21 C 42 % 7.61 C
189 15-06-2010 13:47:02 21.6 C 41 % 7.79 C
190 15-06-2010 13:59:02 23.1 C 34 % 6.39 C
191 15-06-2010 14:11:02 22.1 C 35 % 5.94 C
192 15-06-2010 14:23:02 21.9 C 36 % 6.17 C
193 15-06-2010 14:35:02 21.6 C 37 % 6.3 C
194 15-06-2010 14:47:02 23 C 33 % 5.88 C
195 15-06-2010 14:59:02 23.9 C 31 % 5.76 C
196 15-06-2010 15:11:02 24.1 C 27 % 3.95 C
197 15-06-2010 15:23:03 23.7 C 27 % 3.61 C
198 15-06-2010 15:35:02 23.9 C 28 % 4.3 C
199 15-06-2010 15:47:03 23.6 C 29 % 4.54 C
200 15-06-2010 15:59:03 23.5 C 29 % 4.45 C
Sensor: Nr:Datum:Temp:Feuchte:Taupunkt:
Aussen-T/F 201 15-06-2010 16:11:02 24.2 C 28 % 4.55 C
202 15-06-2010 16:23:03 23.7 C 28 % 4.13 C
203 15-06-2010 16:35:02 24.6 C 26 % 3.84 C
204 15-06-2010 16:47:03 24.7 C 25 % 3.37 C
205 15-06-2010 16:59:03 24.9 C 24 % 2.96 C
206 15-06-2010 17:11:02 24.6 C 25 % 3.29 C
207 15-06-2010 17:23:02 23.7 C 26 % 3.08 C
208 15-06-2010 17:35:02 24.2 C 26 % 3.5 C
209 15-06-2010 17:47:02 23.4 C 26 % 2.82 C
210 15-06-2010 17:59:02 24.9 C 25 % 3.54 C
211 15-06-2010 18:11:02 25.1 C 24 % 3.13 C
212 15-06-2010 18:23:02 24.6 C 26 % 3.84 C
213 15-06-2010 18:35:02 24.1 C 25 % 2.86 C
214 15-06-2010 18:47:02 23.5 C 27 % 3.44 C
215 15-06-2010 18:59:02 24.3 C 25 % 3.03 C
216 15-06-2010 19:11:01 23.1 C 26 % 2.57 C
217 15-06-2010 19:23:02 23.3 C 26 % 2.74 C
218 15-06-2010 19:35:02 23.2 C 26 % 2.65 C
219 15-06-2010 19:47:01 23.4 C 26 % 2.82 C
220 15-06-2010 19:59:01 23.8 C 26 % 3.16 C
221 15-06-2010 20:11:01 22.8 C 27 % 2.84 C
222 15-06-2010 20:23:01 21.7 C 30 % 3.39 C
223 15-06-2010 20:35:02 21.9 C 31 % 4.02 C
224 15-06-2010 20:47:02 21.1 C 30 % 2.87 C
225 15-06-2010 20:59:02 20.4 C 32 % 3.17 C
Sensor: Nr:Datum:Temp:Feuchte:Taupunkt:
Aussen-T/F 226 15-06-2010 21:11:02 20 C 31 % 2.38 C
227 15-06-2010 21:23:02 19.7 C 34 % 3.41 C
228 15-06-2010 21:35:02 19.2 C 35 % 3.38 C
229 15-06-2010 21:47:02 18.7 C 35 % 2.94 C
230 15-06-2010 21:59:02 18.3 C 36 % 2.99 C
231 15-06-2010 22:11:02 18 C 36 % 2.72 C
232 15-06-2010 22:24:01 17.7 C 37 % 2.84 C
233 15-06-2010 22:36:01 17.3 C 37 % 2.49 C
234 15-06-2010 22:48:01 17.1 C 37 % 2.31 C
235 15-06-2010 23:00:01 16.9 C 40 % 3.23 C
236 15-06-2010 23:12:01 16.6 C 41 % 3.31 C
237 15-06-2010 23:24:01 16.1 C 43 % 3.53 C
238 15-06-2010 23:36:01 15.8 C 45 % 3.9 C
239 15-06-2010 23:48:01 15.4 C 46 % 3.85 C
240 16-06-2010 00:00:01 15.2 C 47 % 3.98 C
241 16-06-2010 00:12:01 15 C 46 % 3.49 C
242 16-06-2010 00:24:02 14.6 C 48 % 3.73 C
243 16-06-2010 00:36:02 14.4 C 49 % 3.83 C
244 16-06-2010 00:48:02 14.2 C 50 % 3.94 C
245 16-06-2010 01:00:02 13.8 C 51 % 3.85 C
246 16-06-2010 01:12:02 13.5 C 53 % 4.12 C
247 16-06-2010 01:24:02 13.4 C 54 % 4.29 C
248 16-06-2010 01:36:02 13.2 C 54 % 4.11 C
249 16-06-2010 01:48:02 13.1 C 55 % 4.28 C
250 16-06-2010 02:00:02 13 C 55 % 4.18 C
Sensor: Nr:Datum:Temp:Feuchte:Taupunkt:
Aussen-T/F 251 16-06-2010 02:12:02 12.9 C 55 % 4.09 C
252 16-06-2010 02:24:02 12.7 C 55 % 3.9 C
253 16-06-2010 02:36:02 12.5 C 55 % 3.72 C
254 16-06-2010 02:48:02 12.4 C 56 % 3.88 C
255 16-06-2010 03:00:02 12.2 C 56 % 3.69 C
256 16-06-2010 03:12:02 12 C 57 % 3.76 C
257 16-06-2010 03:24:02 11.8 C 58 % 3.82 C
258 16-06-2010 03:36:02 11.6 C 59 % 3.87 C
259 16-06-2010 03:48:02 11.5 C 59 % 3.78 C
260 16-06-2010 04:00:02 11.4 C 60 % 3.92 C
261 16-06-2010 04:12:02 11.3 C 61 % 4.06 C
262 16-06-2010 04:24:03 11.1 C 61 % 3.87 C
263 16-06-2010 04:36:03 11.1 C 60 % 3.64 C
264 16-06-2010 04:48:03 11.1 C 61 % 3.87 C
265 16-06-2010 05:00:03 10.9 C 62 % 3.92 C
266 16-06-2010 05:12:03 10.8 C 63 % 4.05 C
267 16-06-2010 05:24:03 10.6 C 63 % 3.86 C
268 16-06-2010 05:36:03 10.5 C 64 % 3.99 C
269 16-06-2010 05:48:03 10.5 C 64 % 3.99 C
270 16-06-2010 06:00:03 10.5 C 65 % 4.21 C
271 16-06-2010 06:12:03 10.6 C 65 % 4.3 C
272 16-06-2010 06:24:03 10.7 C 66 % 4.62 C
273 16-06-2010 06:36:03 10.8 C 66 % 4.71 C
274 16-06-2010 06:48:03 10.9 C 66 % 4.81 C
275 16-06-2010 07:00:03 11.1 C 66 % 5 C
Sensor: Nr:Datum:Temp:Feuchte:Taupunkt:
Aussen-T/F 276 16-06-2010 07:12:02 11.5 C 65 % 5.16 C
277 16-06-2010 07:24:01 11.9 C 65 % 5.54 C
278 16-06-2010 07:36:02 12.1 C 64 % 5.51 C
279 16-06-2010 07:48:02 12.5 C 62 % 5.43 C
280 16-06-2010 08:00:02 12.9 C 60 % 5.33 C
281 16-06-2010 08:12:02 13.3 C 56 % 4.72 C
282 16-06-2010 08:24:02 13.7 C 54 % 4.57 C
283 16-06-2010 08:36:02 14.1 C 50 % 3.85 C
284 16-06-2010 08:48:01 14.5 C 48 % 3.63 C
285 16-06-2010 09:00:01 14.9 C 46 % 3.4 C
286 16-06-2010 09:12:02 15.5 C 44 % 3.31 C
287 16-06-2010 09:24:01 16 C 41 % 2.77 C
288 16-06-2010 09:36:01 16.5 C 41 % 3.22 C
289 16-06-2010 09:48:02 16.9 C 39 % 2.87 C
290 16-06-2010 10:00:02 17.3 C 36 % 2.1 C
291 16-06-2010 10:12:02 17.5 C 36 % 2.28 C
292 16-06-2010 10:24:02 18.3 C 34 % 2.19 C
293 16-06-2010 10:36:02 18.6 C 32 % 1.6 C
294 16-06-2010 10:48:02 19.1 C 30 % 1.14 C
295 16-06-2010 11:00:02 19.4 C 27 % -0.06 C
296 16-06-2010 11:12:02 19.7 C 28 % 0.7 C
297 16-06-2010 11:24:02 20.3 C 25 % -0.35 C
298 16-06-2010 11:36:02 21.3 C 25 % 0.5 C
299 16-06-2010 11:48:02 21.7 C 24 % 0.27 C
300 16-06-2010 12:00:02 22.3 C 23 % 0.19 C
Sensor: Nr:Datum:Temp:Feuchte:Taupunkt:
Aussen-T/F 301 16-06-2010 12:12:02 23 C 21 % -0.48 C
302 16-06-2010 12:24:02 23.7 C 21 % 0.1 C
303 16-06-2010 12:36:01 23.7 C 20 % -0.57 C
304 16-06-2010 12:48:02 24.4 C 20 % 0.01 C
305 16-06-2010 13:00:02 25.1 C 20 % 0.59 C
306 16-06-2010 13:12:01 25.6 C 20 % 1 C
307 16-06-2010 13:24:02 26.2 C 20 % 1.49 C
308 16-06-2010 13:36:02 27.2 C 20 % 2.31 C
309 16-06-2010 13:48:02 27.1 C 20 % 2.23 C
310 16-06-2010 14:00:03 26.2 C 20 % 1.49 C
311 16-06-2010 14:12:02 25.4 C 20 % 0.83 C
312 16-06-2010 14:24:02 25.4 C 20 % 0.83 C
313 16-06-2010 14:36:02 25.3 C 20 % 0.75 C
314 16-06-2010 14:48:02 25.5 C 20 % 0.91 C
315 16-06-2010 15:00:02 25.7 C 20 % 1.08 C
316 16-06-2010 15:12:02 25.8 C 20 % 1.16 C
317 16-06-2010 15:24:01 26.2 C 20 % 1.49 C
318 16-06-2010 15:36:02 26.5 C 20 % 1.74 C
319 16-06-2010 15:48:02 26.6 C 20 % 1.82 C
320 16-06-2010 16:00:02 27.1 C 20 % 2.23 C
321 16-06-2010 16:12:02 27.2 C 20 % 2.31 C
322 16-06-2010 16:24:02 26.9 C 20 % 2.06 C
323 16-06-2010 16:36:02 27.3 C 20 % 2.39 C
324 16-06-2010 16:48:02 26.9 C 20 % 2.06 C
325 16-06-2010 17:00:02 26.5 C 20 % 1.74 C
Sensor: Nr:Datum:Temp:Feuchte:Taupunkt:
Aussen-T/F 326 16-06-2010 17:12:02 26.3 C 20 % 1.57 C
327 16-06-2010 17:24:02 27.9 C 20 % 2.88 C
328 16-06-2010 17:36:02 27.5 C 20 % 2.56 C
329 16-06-2010 17:48:01 26.5 C 20 % 1.74 C
330 16-06-2010 18:00:01 26.9 C 20 % 2.06 C
331 16-06-2010 18:12:02 26.9 C 20 % 2.06 C
332 16-06-2010 18:24:01 26.9 C 20 % 2.06 C
333 16-06-2010 18:36:01 26.3 C 20 % 1.57 C
334 16-06-2010 18:48:01 26.1 C 20 % 1.41 C
335 16-06-2010 19:00:01 26.6 C 20 % 1.82 C
336 16-06-2010 19:12:02 25.7 C 20 % 1.08 C
337 16-06-2010 19:24:01 24.9 C 20 % 0.42 C
338 16-06-2010 19:36:01 24.1 C 21 % 0.43 C
339 16-06-2010 19:48:01 24.1 C 23 % 1.7 C
340 16-06-2010 20:00:01 23.9 C 24 % 2.12 C
341 16-06-2010 20:12:01 23.1 C 25 % 2.02 C
342 16-06-2010 20:24:02 22.5 C 26 % 2.06 C
343 16-06-2010 20:36:01 22.5 C 27 % 2.59 C
344 16-06-2010 20:48:03 22.2 C 27 % 2.33 C
345 16-06-2010 21:00:03 21.9 C 30 % 3.56 C
346 16-06-2010 21:12:02 21.3 C 31 % 3.5 C
347 16-06-2010 21:24:03 20.8 C 32 % 3.52 C
348 16-06-2010 21:36:02 20.2 C 34 % 3.85 C
349 16-06-2010 21:48:02 19.6 C 35 % 3.74 C
350 16-06-2010 22:00:02 19.1 C 35 % 3.3 C
Sensor: Nr:Datum:Temp:Feuchte:Taupunkt:
Aussen-T/F 351 16-06-2010 22:12:02 18.8 C 36 % 3.43 C
352 16-06-2010 22:24:02 18.5 C 36 % 3.17 C
353 16-06-2010 22:36:02 18.3 C 37 % 3.38 C
354 16-06-2010 22:48:02 18.2 C 37 % 3.29 C
355 16-06-2010 23:00:02 18 C 38 % 3.49 C
356 16-06-2010 23:12:02 17.6 C 39 % 3.5 C
357 16-06-2010 23:24:02 17.2 C 40 % 3.5 C
358 16-06-2010 23:37:02 17 C 41 % 3.67 C
359 16-06-2010 23:49:02 16.8 C 42 % 3.83 C
360 17-06-2010 00:01:02 16.5 C 42 % 3.56 C
361 17-06-2010 00:13:02 16.3 C 43 % 3.71 C
362 17-06-2010 00:25:02 16 C 44 % 3.77 C
363 17-06-2010 00:37:02 16 C 44 % 3.77 C
364 17-06-2010 00:49:02 15.8 C 45 % 3.9 C
365 17-06-2010 01:01:02 15.6 C 46 % 4.03 C
366 17-06-2010 01:13:03 15.5 C 45 % 3.63 C
367 17-06-2010 01:25:03 15.4 C 46 % 3.85 C
368 17-06-2010 01:37:03 15.2 C 47 % 3.98 C
369 17-06-2010 01:49:03 15.2 C 47 % 3.98 C
370 17-06-2010 02:01:03 15 C 47 % 3.79 C
371 17-06-2010 02:13:03 14.9 C 48 % 4 C
372 17-06-2010 02:25:03 14.8 C 49 % 4.2 C
373 17-06-2010 02:37:03 14.6 C 49 % 4.02 C
374 17-06-2010 02:49:03 14.5 C 50 % 4.21 C
375 17-06-2010 03:01:03 14.5 C 50 % 4.21 C
Sensor: Nr:Datum:Temp:Feuchte:Taupunkt:
Aussen-T/F 376 17-06-2010 03:13:03 14.5 C 49 % 3.93 C
377 17-06-2010 03:25:03 14.5 C 49 % 3.93 C
378 17-06-2010 03:37:03 14.5 C 49 % 3.93 C
379 17-06-2010 03:49:03 14.4 C 49 % 3.83 C
380 17-06-2010 04:01:03 14.2 C 49 % 3.65 C
381 17-06-2010 04:13:03 14.3 C 49 % 3.74 C
382 17-06-2010 04:25:03 14.1 C 49 % 3.56 C
383 17-06-2010 04:37:03 14.1 C 48 % 3.27 C
384 17-06-2010 04:49:03 14 C 49 % 3.47 C
385 17-06-2010 05:01:03 13.8 C 49 % 3.28 C
386 17-06-2010 05:13:04 13.8 C 49 % 3.28 C
387 17-06-2010 05:25:04 13.6 C 49 % 3.1 C
388 17-06-2010 05:37:04 13.5 C 50 % 3.29 C
389 17-06-2010 05:49:04 13.4 C 51 % 3.48 C
390 17-06-2010 06:01:04 13.5 C 51 % 3.57 C
391 17-06-2010 06:13:04 13.5 C 51 % 3.57 C
392 17-06-2010 06:25:04 13.7 C 52 % 4.03 C
393 17-06-2010 06:37:04 14.1 C 51 % 4.13 C
394 17-06-2010 06:49:04 14.4 C 52 % 4.68 C
395 17-06-2010 07:01:03 14.4 C 51 % 4.4 C
396 17-06-2010 07:13:04 14.7 C 49 % 4.11 C
397 17-06-2010 07:25:02 15.1 C 48 % 4.18 C
398 17-06-2010 07:37:03 15.5 C 47 % 4.25 C
399 17-06-2010 07:49:02 16 C 48 % 5.01 C
400 17-06-2010 08:01:02 16.2 C 48 % 5.19 C
Sensor: Nr:Datum:Temp:Feuchte:Taupunkt:
Aussen-T/F 401 17-06-2010 08:13:03 16.5 C 47 % 5.16 C
402 17-06-2010 08:25:01 16.6 C 47 % 5.25 C
403 17-06-2010 08:37:02 16.6 C 46 % 4.95 C
404 17-06-2010 08:49:02 16.8 C 47 % 5.44 C
405 17-06-2010 09:01:02 16.7 C 47 % 5.34 C
406 17-06-2010 09:13:02 15.1 C 59 % 7.16 C
407 17-06-2010 09:25:01 13.9 C 69 % 8.31 C
408 17-06-2010 09:37:02 13.5 C 74 % 8.96 C
409 17-06-2010 09:49:01 13.1 C 76 % 8.97 C
410 17-06-2010 10:01:02 12.9 C 80 % 9.54 C
411 17-06-2010 10:13:02 12.9 C 84 % 10.26 C
412 17-06-2010 10:25:02 13 C 85 % 10.54 C
413 17-06-2010 10:37:02 13.2 C 87 % 11.09 C
414 17-06-2010 10:49:01 13.2 C 87 % 11.09 C
415 17-06-2010 11:01:02 13.5 C 88 % 11.55 C
416 17-06-2010 11:13:02 13.8 C 88 % 11.85 C
417 17-06-2010 11:25:02 13.8 C 88 % 11.85 C
418 17-06-2010 11:37:02 14 C 88 % 12.05 C
419 17-06-2010 11:49:02 13.9 C 89 % 12.12 C
420 17-06-2010 12:01:02 14 C 89 % 12.22 C
421 17-06-2010 12:13:02 14 C 89 % 12.22 C
422 17-06-2010 12:25:02 13.7 C 89 % 11.92 C
423 17-06-2010 12:37:01 13.8 C 90 % 12.19 C
424 17-06-2010 12:49:02 13.8 C 90 % 12.19 C
425 17-06-2010 13:01:01 13.7 C 90 % 12.09 C
Sensor: Nr:Datum:Temp:Feuchte:Taupunkt:
Aussen-T/F 426 17-06-2010 13:13:01 13.7 C 91 % 12.26 C
427 17-06-2010 13:25:02 13.8 C 91 % 12.36 C
428 17-06-2010 13:37:01 13.8 C 91 % 12.36 C
429 17-06-2010 13:49:02 13.9 C 91 % 12.46 C
430 17-06-2010 14:01:02 13.7 C 92 % 12.42 C
431 17-06-2010 14:13:02 13.9 C 92 % 12.62 C
432 17-06-2010 14:25:02 14.2 C 92 % 12.92 C
433 17-06-2010 14:37:02 14.6 C 92 % 13.32 C
434 17-06-2010 14:49:02 15.4 C 91 % 13.94 C
435 17-06-2010 15:01:01 15.9 C 90 % 14.26 C
436 17-06-2010 15:13:01 16.4 C 88 % 14.41 C
437 17-06-2010 15:25:02 16.6 C 87 % 14.43 C
438 17-06-2010 15:37:01 17 C 86 % 14.64 C
439 17-06-2010 15:49:02 17 C 82 % 13.91 C
440 17-06-2010 16:01:01 17 C 83 % 14.09 C
441 17-06-2010 16:13:01 16.9 C 84 % 14.18 C
442 17-06-2010 16:25:02 16.8 C 84 % 14.08 C
443 17-06-2010 16:37:01 16.9 C 84 % 14.18 C
444 17-06-2010 16:49:03 17 C 83 % 14.09 C
445 17-06-2010 17:01:02 17 C 82 % 13.91 C
446 17-06-2010 17:13:02 16.6 C 83 % 13.7 C
447 17-06-2010 17:25:02 16.5 C 84 % 13.79 C
448 17-06-2010 17:37:02 16.5 C 84 % 13.79 C
449 17-06-2010 17:49:02 16.9 C 83 % 14 C
450 17-06-2010 18:01:03 17 C 80 % 13.53 C
Sensor: Nr:Datum:Temp:Feuchte:Taupunkt:
Aussen-T/F 451 17-06-2010 18:13:04 17 C 79 % 13.33 C
452 17-06-2010 18:25:03 17.2 C 80 % 13.72 C
453 17-06-2010 18:37:03 17.2 C 81 % 13.91 C
454 17-06-2010 18:49:02 17.2 C 81 % 13.91 C
455 17-06-2010 19:01:02 16.8 C 82 % 13.71 C
456 17-06-2010 19:13:02 16.8 C 84 % 14.08 C
457 17-06-2010 19:25:01 16.7 C 85 % 14.17 C
458 17-06-2010 19:37:02 16.5 C 86 % 14.15 C
459 17-06-2010 19:49:02 16.3 C 86 % 13.95 C
460 17-06-2010 20:01:02 16.2 C 87 % 14.03 C
461 17-06-2010 20:13:02 16 C 87 % 13.84 C
462 17-06-2010 20:25:02 15.8 C 88 % 13.82 C
463 17-06-2010 20:37:02 15.6 C 88 % 13.62 C
464 17-06-2010 20:49:01 15.5 C 88 % 13.52 C
465 17-06-2010 21:01:02 15.5 C 89 % 13.7 C
466 17-06-2010 21:13:02 15.5 C 89 % 13.7 C
467 17-06-2010 21:25:02 15.6 C 89 % 13.79 C
468 17-06-2010 21:37:02 15.4 C 89 % 13.6 C
469 17-06-2010 21:49:02 15.3 C 89 % 13.5 C
470 17-06-2010 22:01:02 15.2 C 90 % 13.57 C
471 17-06-2010 22:13:02 15.2 C 90 % 13.57 C
472 17-06-2010 22:25:01 15 C 90 % 13.37 C
473 17-06-2010 22:37:02 15 C 90 % 13.37 C
474 17-06-2010 22:50:02 14.9 C 91 % 13.44 C
475 17-06-2010 23:02:02 14.8 C 91 % 13.35 C
Sensor: Nr:Datum:Temp:Feuchte:Taupunkt:
Aussen-T/F 476 17-06-2010 23:14:02 14.6 C 91 % 13.15 C
477 17-06-2010 23:26:02 14.4 C 91 % 12.95 C
478 17-06-2010 23:38:02 14.3 C 91 % 12.85 C
479 17-06-2010 23:50:02 14.2 C 91 % 12.75 C
480 18-06-2010 00:02:02 14 C 91 % 12.56 C
481 18-06-2010 00:14:02 13.8 C 91 % 12.36 C
482 18-06-2010 00:26:02 13.7 C 92 % 12.42 C
483 18-06-2010 00:38:02 13.7 C 92 % 12.42 C
484 18-06-2010 00:50:02 13.8 C 92 % 12.52 C
485 18-06-2010 01:02:02 14 C 92 % 12.72 C
486 18-06-2010 01:14:02 14 C 92 % 12.72 C
487 18-06-2010 01:26:02 14 C 92 % 12.72 C
488 18-06-2010 01:38:02 14.1 C 92 % 12.82 C
489 18-06-2010 01:50:02 14.1 C 92 % 12.82 C
490 18-06-2010 02:02:02 14 C 92 % 12.72 C
491 18-06-2010 02:14:02 13.9 C 92 % 12.62 C
492 18-06-2010 02:26:02 13.8 C 92 % 12.52 C
493 18-06-2010 02:38:02 13.6 C 92 % 12.33 C
494 18-06-2010 02:50:03 13.5 C 92 % 12.23 C
495 18-06-2010 03:02:03 13.4 C 92 % 12.13 C
496 18-06-2010 03:14:03 13.6 C 92 % 12.33 C
497 18-06-2010 03:26:03 13.7 C 92 % 12.42 C
498 18-06-2010 03:38:03 13.5 C 92 % 12.23 C
499 18-06-2010 03:50:03 13.2 C 91 % 11.76 C
500 18-06-2010 04:02:03 12.9 C 91 % 11.47 C
Sensor: Nr:Datum:Temp:Feuchte:Taupunkt:
Aussen-T/F 501 18-06-2010 04:14:03 12.7 C 91 % 11.27 C
502 18-06-2010 04:26:03 12.4 C 91 % 10.97 C
503 18-06-2010 04:38:03 12.3 C 91 % 10.87 C
504 18-06-2010 04:50:03 12.2 C 91 % 10.78 C
505 18-06-2010 05:02:03 12.2 C 91 % 10.78 C
506 18-06-2010 05:14:03 12.2 C 91 % 10.78 C
507 18-06-2010 05:26:03 12.1 C 91 % 10.68 C
508 18-06-2010 05:38:03 12 C 91 % 10.58 C
509 18-06-2010 05:50:03 12 C 91 % 10.58 C
510 18-06-2010 06:02:03 12 C 91 % 10.58 C
511 18-06-2010 06:14:03 12.1 C 91 % 10.68 C
512 18-06-2010 06:26:03 12.2 C 91 % 10.78 C
513 18-06-2010 06:38:03 12.2 C 91 % 10.78 C
514 18-06-2010 06:50:04 12.4 C 90 % 10.81 C
515 18-06-2010 07:02:02 12.5 C 90 % 10.91 C
516 18-06-2010 07:14:02 12.7 C 89 % 10.94 C
517 18-06-2010 07:26:02 12.8 C 88 % 10.86 C
518 18-06-2010 07:38:02 12.8 C 88 % 10.86 C
519 18-06-2010 07:50:02 12.9 C 87 % 10.79 C
520 18-06-2010 08:02:02 13.1 C 85 % 10.64 C
521 18-06-2010 08:14:02 13.4 C 84 % 10.75 C
522 18-06-2010 08:26:02 13.5 C 84 % 10.85 C
523 18-06-2010 08:38:02 13.8 C 83 % 10.97 C
524 18-06-2010 08:50:02 14.4 C 81 % 11.18 C
525 18-06-2010 09:02:02 14.8 C 78 % 11 C
Sensor: Nr:Datum:Temp:Feuchte:Taupunkt:
Aussen-T/F 526 18-06-2010 09:14:02 15 C 74 % 10.41 C
527 18-06-2010 09:26:02 15.5 C 74 % 10.89 C
528 18-06-2010 09:38:02 15.7 C 73 % 10.88 C
529 18-06-2010 09:50:02 16.4 C 70 % 10.92 C
530 18-06-2010 10:02:03 16.5 C 66 % 10.13 C
531 18-06-2010 10:14:03 16.6 C 67 % 10.45 C
532 18-06-2010 10:26:02 16.3 C 68 % 10.39 C
533 18-06-2010 10:38:02 17 C 66 % 10.61 C
534 18-06-2010 10:50:02 16.4 C 64 % 9.58 C
535 18-06-2010 11:02:02 16.2 C 66 % 9.85 C
536 18-06-2010 11:14:02 15.9 C 67 % 9.79 C
537 18-06-2010 11:26:01 16.3 C 65 % 9.71 C
538 18-06-2010 11:38:02 16.6 C 63 % 9.53 C
539 18-06-2010 11:50:02 15.9 C 63 % 8.87 C
540 18-06-2010 12:02:02 15.9 C 66 % 9.56 C
541 18-06-2010 12:14:02 15.5 C 65 % 8.96 C
542 18-06-2010 12:26:01 15.3 C 68 % 9.43 C
543 18-06-2010 12:38:02 15 C 68 % 9.15 C
544 18-06-2010 12:50:02 15.6 C 67 % 9.5 C
545 18-06-2010 13:02:02 15.7 C 65 % 9.15 C
546 18-06-2010 13:14:03 16.3 C 62 % 9.01 C
547 18-06-2010 13:26:01 16.1 C 63 % 9.06 C
548 18-06-2010 13:38:02 15.8 C 63 % 8.78 C
549 18-06-2010 13:50:02 15.3 C 65 % 8.77 C
550 18-06-2010 14:02:02 15.3 C 65 % 8.77 C
Sensor: Nr:Datum:Temp:Feuchte:Taupunkt:
Aussen-T/F 551 18-06-2010 14:14:02 14.9 C 67 % 8.83 C
552 18-06-2010 14:26:01 14.7 C 67 % 8.64 C
553 18-06-2010 14:38:02 14.5 C 68 % 8.67 C
554 18-06-2010 14:50:02 14.9 C 67 % 8.83 C
555 18-06-2010 15:02:02 15.4 C 65 % 8.86 C
556 18-06-2010 15:14:03 14.5 C 67 % 8.45 C
557 18-06-2010 15:26:02 14.9 C 67 % 8.83 C
558 18-06-2010 15:38:02 15.2 C 65 % 8.67 C
559 18-06-2010 15:50:02 14.7 C 65 % 8.2 C
560 18-06-2010 16:02:03 14.8 C 67 % 8.74 C
561 18-06-2010 16:14:03 14.7 C 67 % 8.64 C
562 18-06-2010 16:26:03 15 C 65 % 8.48 C
563 18-06-2010 16:38:02 15.6 C 63 % 8.59 C
564 18-06-2010 16:50:01 16.8 C 55 % 7.72 C
565 18-06-2010 17:02:02 17.9 C 52 % 7.91 C
566 18-06-2010 17:14:02 19.1 C 44 % 6.57 C
567 18-06-2010 17:26:01 19.2 C 42 % 5.99 C
568 18-06-2010 17:38:02 19.8 C 43 % 6.87 C
569 18-06-2010 17:50:02 19.8 C 40 % 5.82 C
570 18-06-2010 18:02:03 21 C 38 % 6.15 C
571 18-06-2010 18:14:03 20.8 C 38 % 5.97 C
572 18-06-2010 18:26:02 21.5 C 37 % 6.21 C
573 18-06-2010 18:38:02 21.8 C 36 % 6.08 C
574 18-06-2010 18:50:02 22.2 C 35 % 6.02 C
575 18-06-2010 19:02:02 20.8 C 37 % 5.59 C
Sensor: Nr:Datum:Temp:Feuchte:Taupunkt:
Aussen-T/F 576 18-06-2010 19:14:02 19.9 C 41 % 6.27 C
577 18-06-2010 19:26:02 19.1 C 44 % 6.57 C
578 18-06-2010 19:38:02 18.9 C 46 % 7.04 C
579 18-06-2010 19:50:02 18.9 C 47 % 7.35 C
580 18-06-2010 20:02:02 18.5 C 47 % 6.99 C
581 18-06-2010 20:14:02 18.1 C 48 % 6.93 C
582 18-06-2010 20:26:02 17.8 C 50 % 7.25 C
583 18-06-2010 20:38:02 17.5 C 52 % 7.54 C
584 18-06-2010 20:50:01 17.2 C 54 % 7.82 C
585 18-06-2010 21:02:02 16 C 64 % 9.2 C
586 18-06-2010 21:14:02 15 C 73 % 10.2 C
587 18-06-2010 21:26:01 14.8 C 77 % 10.81 C
588 18-06-2010 21:38:01 14.7 C 78 % 10.91 C
589 18-06-2010 21:50:01 14.6 C 79 % 11 C
590 18-06-2010 22:02:01 14.7 C 78 % 10.91 C
591 18-06-2010 22:14:01 14.7 C 76 % 10.52 C
592 18-06-2010 22:26:02 14.8 C 75 % 10.42 C
593 18-06-2010 22:38:01 15 C 74 % 10.41 C
594 18-06-2010 22:50:02 15.1 C 72 % 10.09 C
595 18-06-2010 23:02:01 15 C 72 % 10 C
596 18-06-2010 23:14:01 14.8 C 68 % 8.96 C
597 18-06-2010 23:27:04 14.8 C 54 % 5.59 C
598 18-06-2010 23:39:04 14.7 C 52 % 4.96 C
599 18-06-2010 23:51:04 14.7 C 51 % 4.68 C
600 19-06-2010 00:03:04 14.6 C 53 % 5.14 C
Sensor: Nr:Datum:Temp:Feuchte:Taupunkt:
Aussen-T/F 601 19-06-2010 00:15:04 14.5 C 54 % 5.31 C
602 19-06-2010 00:27:04 14.4 C 56 % 5.74 C
603 19-06-2010 00:39:04 14.3 C 58 % 6.16 C
604 19-06-2010 00:51:04 14.2 C 58 % 6.06 C
605 19-06-2010 01:03:04 14 C 59 % 6.12 C
606 19-06-2010 01:15:04 13.8 C 61 % 6.42 C
607 19-06-2010 01:27:05 13.6 C 61 % 6.23 C
608 19-06-2010 01:39:05 13.4 C 61 % 6.04 C
609 19-06-2010 01:51:05 13.2 C 61 % 5.85 C
610 19-06-2010 02:03:05 12.8 C 62 % 5.71 C
611 19-06-2010 02:15:05 12.7 C 62 % 5.62 C
612 19-06-2010 02:27:05 12.5 C 62 % 5.43 C
613 19-06-2010 02:39:05 12.4 C 62 % 5.33 C
614 19-06-2010 02:51:05 12.4 C 62 % 5.33 C
615 19-06-2010 03:03:05 12.5 C 62 % 5.43 C
616 19-06-2010 03:15:05 12.5 C 61 % 5.19 C
617 19-06-2010 03:27:05 12.1 C 61 % 4.82 C
618 19-06-2010 03:39:05 11.8 C 64 % 5.22 C
619 19-06-2010 03:51:05 11.5 C 64 % 4.94 C
620 19-06-2010 04:03:05 11.2 C 64 % 4.65 C
621 19-06-2010 04:15:05 11 C 65 % 4.68 C
622 19-06-2010 04:27:05 10.9 C 66 % 4.81 C
623 19-06-2010 04:39:05 10.7 C 67 % 4.83 C
624 19-06-2010 04:51:05 10.9 C 67 % 5.02 C
625 19-06-2010 05:03:05 11 C 66 % 4.9 C
Sensor: Nr:Datum:Temp:Feuchte:Taupunkt:
Aussen-T/F 626 19-06-2010 05:15:05 11.1 C 65 % 4.78 C
627 19-06-2010 05:27:06 11.2 C 65 % 4.87 C
628 19-06-2010 05:39:06 11.2 C 65 % 4.87 C
629 19-06-2010 05:51:06 11.2 C 65 % 4.87 C
630 19-06-2010 06:03:06 11.4 C 66 % 5.28 C
631 19-06-2010 06:15:06 11.4 C 66 % 5.28 C
632 19-06-2010 06:27:06 11.5 C 66 % 5.38 C
633 19-06-2010 06:39:06 11.6 C 66 % 5.47 C
634 19-06-2010 06:51:06 11.6 C 66 % 5.47 C
635 19-06-2010 07:03:06 11.8 C 65 % 5.44 C
636 19-06-2010 07:15:06 11.8 C 65 % 5.44 C
637 19-06-2010 07:27:06 12 C 63 % 5.18 C
638 19-06-2010 07:39:06 11.9 C 62 % 4.86 C
639 19-06-2010 07:51:06 11.8 C 62 % 4.77 C
640 19-06-2010 08:03:06 12 C 61 % 4.72 C
641 19-06-2010 08:15:03 12 C 60 % 4.49 C
642 19-06-2010 08:27:03 12 C 61 % 4.72 C
643 19-06-2010 08:39:03 11.9 C 61 % 4.63 C
644 19-06-2010 08:51:02 11.9 C 61 % 4.63 C
645 19-06-2010 09:03:02 11.8 C 63 % 5 C
646 19-06-2010 09:15:03 12.1 C 65 % 5.73 C
647 19-06-2010 09:27:03 12.8 C 59 % 5 C
648 19-06-2010 09:39:02 12.9 C 57 % 4.6 C
649 19-06-2010 09:51:02 12.8 C 57 % 4.5 C
650 19-06-2010 10:03:02 12.9 C 56 % 4.35 C
Sensor: Nr:Datum:Temp:Feuchte:Taupunkt:
Aussen-T/F 651 19-06-2010 10:15:02 11.6 C 64 % 5.03 C
652 19-06-2010 10:27:02 11.8 C 66 % 5.66 C
653 19-06-2010 10:39:02 12.4 C 62 % 5.33 C
654 19-06-2010 10:51:02 12.4 C 59 % 4.62 C
655 19-06-2010 11:03:02 12.9 C 56 % 4.35 C
656 19-06-2010 11:15:02 13.6 C 55 % 4.74 C
657 19-06-2010 11:27:02 13.8 C 50 % 3.57 C
658 19-06-2010 11:39:02 15.8 C 46 % 4.22 C
659 19-06-2010 11:51:02 17.6 C 41 % 4.21 C
660 19-06-2010 12:03:02 16.6 C 40 % 2.96 C
661 19-06-2010 12:15:02 18.1 C 35 % 2.42 C
662 19-06-2010 12:27:02 16.9 C 35 % 1.36 C
663 19-06-2010 12:39:01 15.5 C 40 % 1.98 C
664 19-06-2010 12:51:02 14.3 C 44 % 2.23 C
665 19-06-2010 13:03:01 13.4 C 53 % 4.03 C
666 19-06-2010 13:15:02 15 C 49 % 4.39 C
667 19-06-2010 13:27:02 17.3 C 40 % 3.59 C
668 19-06-2010 13:39:01 20.4 C 31 % 2.72 C
669 19-06-2010 13:51:02 18.7 C 34 % 2.54 C
670 19-06-2010 14:03:02 19.3 C 32 % 2.21 C
671 19-06-2010 14:15:02 19.3 C 30 % 1.31 C
672 19-06-2010 14:27:02 18.3 C 30 % 0.45 C
673 19-06-2010 14:39:02 16.8 C 35 % 1.27 C
674 19-06-2010 14:51:02 17.6 C 34 % 1.57 C
675 19-06-2010 15:03:01 18.6 C 30 % 0.71 C
Sensor: Nr:Datum:Temp:Feuchte:Taupunkt:
Aussen-T/F 676 19-06-2010 15:15:01 18.7 C 30 % 0.79 C
677 19-06-2010 15:27:01 18.7 C 31 % 1.25 C
678 19-06-2010 15:39:02 17.4 C 32 % 0.56 C
679 19-06-2010 15:51:02 18.2 C 31 % 0.81 C
680 19-06-2010 16:03:02 17.9 C 31 % 0.55 C
681 19-06-2010 16:15:02 17.7 C 34 % 1.66 C
682 19-06-2010 16:27:02 17.9 C 33 % 1.42 C
683 19-06-2010 16:39:02 19.9 C 31 % 2.29 C
684 19-06-2010 16:51:02 20.2 C 26 % 0.11 C
685 19-06-2010 17:03:02 18.5 C 30 % 0.62 C
686 19-06-2010 17:15:02 18.2 C 33 % 1.68 C
687 19-06-2010 17:27:02 18 C 32 % 1.08 C
688 19-06-2010 17:39:02 16.8 C 36 % 1.66 C
689 19-06-2010 17:51:03 16.8 C 39 % 2.78 C
690 19-06-2010 18:03:03 16.7 C 37 % 1.96 C
691 19-06-2010 18:15:02 16.9 C 38 % 2.51 C
692 19-06-2010 18:27:02 16 C 41 % 2.77 C
693 19-06-2010 18:39:02 16.3 C 40 % 2.69 C
694 19-06-2010 18:51:01 15.8 C 41 % 2.59 C
695 19-06-2010 19:03:03 17.4 C 37 % 2.58 C
696 19-06-2010 19:15:01 17.2 C 35 % 1.62 C
697 19-06-2010 19:27:01 16.6 C 36 % 1.49 C
698 19-06-2010 19:39:02 16.1 C 39 % 2.16 C
699 19-06-2010 19:51:03 16.1 C 42 % 3.2 C
700 19-06-2010 20:03:03 15 C 41 % 1.87 C
Sensor: Nr:Datum:Temp:Feuchte:Taupunkt:
Aussen-T/F 701 19-06-2010 20:15:02 14.8 C 44 % 2.68 C
702 19-06-2010 20:27:03 14.8 C 46 % 3.31 C
703 19-06-2010 20:39:02 14.4 C 47 % 3.25 C
704 19-06-2010 20:51:01 14.5 C 49 % 3.93 C
705 19-06-2010 21:03:02 14.5 C 49 % 3.93 C
706 19-06-2010 21:15:02 14.3 C 49 % 3.74 C
707 19-06-2010 21:27:02 14.1 C 51 % 4.13 C
708 19-06-2010 21:39:02 14 C 52 % 4.31 C
709 19-06-2010 21:51:02 13.8 C 53 % 4.4 C
710 19-06-2010 22:03:04 13.6 C 53 % 4.21 C
711 19-06-2010 22:15:15 13.2 C 53 % 3.84 C
712 19-06-2010 22:27:15 12.8 C 53 % 3.47 C
713 19-06-2010 22:39:01 12.6 C 54 % 3.55 C
714 19-06-2010 22:51:02 12.4 C 56 % 3.88 C
715 19-06-2010 23:03:01 11.9 C 58 % 3.91 C
716 19-06-2010 23:15:02 12.2 C 58 % 4.19 C
717 19-06-2010 23:27:02 12.4 C 57 % 4.13 C
718 19-06-2010 23:39:01 12.1 C 58 % 4.1 C
719 19-06-2010 23:51:02 11.8 C 60 % 4.3 C
720 20-06-2010 00:03:02 11.5 C 61 % 4.25 C
721 20-06-2010 00:15:02 11.2 C 62 % 4.2 C
722 20-06-2010 00:27:02 10.8 C 64 % 4.27 C
723 20-06-2010 00:39:02 10.6 C 66 % 4.52 C
724 20-06-2010 00:51:02 10.5 C 66 % 4.43 C
725 20-06-2010 01:03:01 10.6 C 63 % 3.86 C
Sensor: Nr:Datum:Temp:Feuchte:Taupunkt:
Aussen-T/F 726 20-06-2010 01:15:02 10.6 C 61 % 3.4 C
727 20-06-2010 01:27:02 10.5 C 61 % 3.31 C
728 20-06-2010 01:40:01 10.4 C 61 % 3.21 C
729 20-06-2010 01:52:01 10.2 C 62 % 3.25 C
730 20-06-2010 02:04:01 10.1 C 63 % 3.39 C
731 20-06-2010 02:16:01 9.8 C 65 % 3.54 C
732 20-06-2010 02:28:01 9.6 C 66 % 3.57 C
733 20-06-2010 02:40:01 9.4 C 67 % 3.59 C
734 20-06-2010 02:52:01 9.3 C 69 % 3.91 C
735 20-06-2010 03:04:01 9.3 C 71 % 4.32 C
736 20-06-2010 03:16:01 9.5 C 71 % 4.51 C
737 20-06-2010 03:28:02 9.6 C 72 % 4.81 C
738 20-06-2010 03:40:02 9.5 C 74 % 5.1 C
739 20-06-2010 03:52:02 9.4 C 74 % 5.01 C
740 20-06-2010 04:04:02 9.1 C 76 % 5.1 C
741 20-06-2010 04:16:02 9.1 C 78 % 5.47 C
742 20-06-2010 04:28:02 9.2 C 79 % 5.75 C
743 20-06-2010 04:40:02 9.4 C 79 % 5.95 C
744 20-06-2010 04:52:02 9.2 C 79 % 5.75 C
745 20-06-2010 05:04:02 9.2 C 79 % 5.75 C
746 20-06-2010 05:16:02 9.2 C 79 % 5.75 C
747 20-06-2010 05:28:02 9.3 C 79 % 5.85 C
748 20-06-2010 05:40:02 9.4 C 79 % 5.95 C
749 20-06-2010 05:52:02 9.6 C 79 % 6.14 C
750 20-06-2010 06:04:02 9.6 C 79 % 6.14 C
Sensor: Nr:Datum:Temp:Feuchte:Taupunkt:
Aussen-T/F 751 20-06-2010 06:16:02 9.7 C 79 % 6.24 C
752 20-06-2010 06:28:02 10.1 C 77 % 6.26 C
753 20-06-2010 06:40:02 10.4 C 77 % 6.55 C
754 20-06-2010 06:52:02 10.6 C 75 % 6.36 C
755 20-06-2010 07:04:02 10.7 C 73 % 6.07 C
756 20-06-2010 07:16:02 10.7 C 73 % 6.07 C
757 20-06-2010 07:28:02 10.4 C 76 % 6.36 C
758 20-06-2010 07:40:02 10.2 C 79 % 6.73 C
759 20-06-2010 07:52:02 10.2 C 81 % 7.09 C
760 20-06-2010 08:04:01 10.3 C 82 % 7.37 C
761 20-06-2010 08:16:02 10.5 C 83 % 7.74 C
762 20-06-2010 08:28:02 10.4 C 83 % 7.64 C
763 20-06-2010 08:40:01 10.9 C 84 % 8.31 C
764 20-06-2010 08:52:03 10.8 C 83 % 8.03 C
765 20-06-2010 09:04:02 11.4 C 80 % 8.08 C
766 20-06-2010 09:16:03 12.4 C 78 % 8.68 C
767 20-06-2010 09:28:03 12.5 C 72 % 7.6 C
768 20-06-2010 09:40:02 13 C 69 % 7.45 C
769 20-06-2010 09:52:02 13.1 C 66 % 6.9 C
770 20-06-2010 10:04:01 13.6 C 66 % 7.38 C
771 20-06-2010 10:16:02 14 C 62 % 6.84 C
772 20-06-2010 10:28:02 13.7 C 59 % 5.84 C
773 20-06-2010 10:40:02 13.3 C 61 % 5.95 C
774 20-06-2010 10:52:02 13.1 C 61 % 5.76 C
775 20-06-2010 11:04:02 13 C 61 % 5.66 C
Sensor: Nr:Datum:Temp:Feuchte:Taupunkt:
Aussen-T/F 776 20-06-2010 11:16:01 12.6 C 64 % 5.98 C
777 20-06-2010 11:28:01 13.3 C 61 % 5.95 C
778 20-06-2010 11:40:02 14 C 58 % 5.88 C
779 20-06-2010 11:52:02 14.3 C 54 % 5.13 C
780 20-06-2010 12:04:02 14.4 C 53 % 4.95 C
781 20-06-2010 12:16:02 14.9 C 53 % 5.42 C
782 20-06-2010 12:28:02 15.3 C 50 % 4.95 C
783 20-06-2010 12:40:02 16.1 C 47 % 4.8 C
784 20-06-2010 12:52:01 15.6 C 47 % 4.34 C
785 20-06-2010 13:04:02 15.3 C 50 % 4.95 C
786 20-06-2010 13:16:01 15.6 C 50 % 5.23 C
787 20-06-2010 13:28:01 15.8 C 48 % 4.82 C
788 20-06-2010 13:40:01 16.9 C 44 % 4.58 C
789 20-06-2010 13:52:01 18.2 C 38 % 3.66 C
790 20-06-2010 14:04:01 16.9 C 38 % 2.51 C
791 20-06-2010 14:16:02 15.7 C 44 % 3.5 C
792 20-06-2010 14:28:02 15.9 C 45 % 4 C
793 20-06-2010 14:40:01 17.4 C 42 % 4.37 C
794 20-06-2010 14:52:02 16.7 C 40 % 3.05 C
795 20-06-2010 15:04:02 17.2 C 39 % 3.14 C
796 20-06-2010 15:16:02 17.6 C 39 % 3.5 C
797 20-06-2010 15:28:02 17.7 C 40 % 3.95 C
798 20-06-2010 15:40:02 18.7 C 38 % 4.11 C
799 20-06-2010 15:52:02 18.1 C 37 % 3.2 C
800 20-06-2010 16:04:02 16.4 C 41 % 3.13 C
Sensor: Nr:Datum:Temp:Feuchte:Taupunkt:
Aussen-T/F 801 20-06-2010 16:16:02 16.4 C 41 % 3.13 C
802 20-06-2010 16:28:02 16.7 C 42 % 3.74 C
803 20-06-2010 16:40:03 17.1 C 39 % 3.05 C
804 20-06-2010 16:52:02 17.1 C 37 % 2.31 C
805 20-06-2010 17:04:01 17 C 37 % 2.22 C
806 20-06-2010 17:16:02 16 C 42 % 3.11 C
807 20-06-2010 17:28:02 16.2 C 42 % 3.29 C
808 20-06-2010 17:40:02 16 C 43 % 3.44 C
809 20-06-2010 17:52:02 16.4 C 44 % 4.13 C
810 20-06-2010 18:04:03 16.5 C 45 % 4.54 C
811 20-06-2010 18:16:02 16.2 C 46 % 4.58 C
812 20-06-2010 18:28:02 16.4 C 45 % 4.45 C
813 20-06-2010 18:40:02 16.3 C 45 % 4.36 C
814 20-06-2010 18:52:02 16.2 C 44 % 3.95 C
815 20-06-2010 19:04:02 15.9 C 44 % 3.68 C
816 20-06-2010 19:16:01 15.7 C 44 % 3.5 C
817 20-06-2010 19:28:01 15.4 C 45 % 3.54 C
818 20-06-2010 19:40:02 15.6 C 46 % 4.03 C
819 20-06-2010 19:52:02 15.8 C 46 % 4.22 C
820 20-06-2010 20:04:02 15.6 C 47 % 4.34 C
821 20-06-2010 20:16:01 15.3 C 46 % 3.76 C
822 20-06-2010 20:28:01 15.2 C 47 % 3.98 C
823 20-06-2010 20:40:02 15.1 C 48 % 4.18 C
824 20-06-2010 20:52:02 15 C 49 % 4.39 C
825 20-06-2010 21:04:02 14.8 C 52 % 5.05 C
Sensor: Nr:Datum:Temp:Feuchte:Taupunkt:
Aussen-T/F 826 20-06-2010 21:16:01 14.7 C 52 % 4.96 C
827 20-06-2010 21:28:01 14.6 C 53 % 5.14 C
828 20-06-2010 21:40:02 14.5 C 55 % 5.58 C
829 20-06-2010 21:52:02 14.3 C 55 % 5.39 C
830 20-06-2010 22:04:02 14.2 C 56 % 5.56 C
831 20-06-2010 22:17:02 14 C 56 % 5.37 C
832 20-06-2010 22:29:02 13.8 C 58 % 5.69 C
833 20-06-2010 22:41:02 13.5 C 59 % 5.65 C
834 20-06-2010 22:53:02 13.4 C 60 % 5.8 C
835 20-06-2010 23:05:02 13.2 C 60 % 5.61 C
836 20-06-2010 23:17:02 13 C 61 % 5.66 C
837 20-06-2010 23:29:02 12.6 C 63 % 5.75 C
838 20-06-2010 23:41:02 12.3 C 63 % 5.47 C
839 20-06-2010 23:53:02 12.1 C 65 % 5.73 C

Legende:
   Min
   Max


Maximal/Minimal-Werte vom 14.06.2010 - 20.06.2010

Sensor Min Max Avg
Temp
(Aussen-T/F)
9.1 °C
20-06-2010  04:04:02
30.9 °C
14-06-2010  16:58:01
16.47 °C
Feuchte
(Aussen-T/F)
20 %
14-06-2010  12:58:02
92 %
17-06-2010  14:01:02
55.39 %
Taupunkt
(Aussen-T/F)
-0.57 C
16-06-2010  12:36:01
14.64 C
17-06-2010  15:37:01
6.21 C

Die Daten stammen von einer Davis Vantage Pro 2 Wetter-Station und werden unter Linux mit der Software wview2wettercgi und aufbereitet. Alle Angaben erfolgen ohne Gewähr für ihre Vollständigkeit oder Richtigkeit.
Kontakt: Rainer Krienke krienke@uni-koblenz.de . Meine Webseiten an der Uni Koblenz oder privat.
Version: $Revision: 0.78 $